sensor_id;sensor_type;location;lat;lon;timestamp;pressure;altitude;pressure_sealevel;temperature
63689;BMP280;54895;40.928;14.480;2023-04-23T00:00:05;100989.94;;;18.81
63689;BMP280;54895;40.928;14.480;2023-04-23T00:02:39;100983.06;;;18.61
63689;BMP280;54895;40.928;14.480;2023-04-23T00:05:07;100961.91;;;18.57
63689;BMP280;54895;40.928;14.480;2023-04-23T00:07:34;100945.22;;;18.42
63689;BMP280;54895;40.928;14.480;2023-04-23T00:10:01;100968.31;;;18.62
63689;BMP280;54895;40.928;14.480;2023-04-23T00:12:31;100958.34;;;18.55
63689;BMP280;54895;40.928;14.480;2023-04-23T00:15:01;100958.03;;;18.51
63689;BMP280;54895;40.928;14.480;2023-04-23T00:17:27;100982.25;;;18.68
63689;BMP280;54895;40.928;14.480;2023-04-23T00:19:54;100973.09;;;18.54
63689;BMP280;54895;40.928;14.480;2023-04-23T00:22:20;100954.91;;;18.45
63689;BMP280;54895;40.928;14.480;2023-04-23T00:24:47;101008.84;;;18.99
63689;BMP280;54895;40.928;14.480;2023-04-23T00:27:13;101044.41;;;19.15
63689;BMP280;54895;40.928;14.480;2023-04-23T00:29:39;101026.31;;;18.63
63689;BMP280;54895;40.928;14.480;2023-04-23T00:32:07;101025.56;;;18.53
63689;BMP280;54895;40.928;14.480;2023-04-23T00:34:33;101013.53;;;18.37
63689;BMP280;54895;40.928;14.480;2023-04-23T00:37:00;100989.59;;;18.14
63689;BMP280;54895;40.928;14.480;2023-04-23T00:39:26;100988.22;;;18.23
63689;BMP280;54895;40.928;14.480;2023-04-23T00:41:52;100981.25;;;18.20
63689;BMP280;54895;40.928;14.480;2023-04-23T00:44:19;100962.44;;;18.03
63689;BMP280;54895;40.928;14.480;2023-04-23T00:46:46;100973.06;;;18.18
63689;BMP280;54895;40.928;14.480;2023-04-23T00:49:13;100993.59;;;18.23
63689;BMP280;54895;40.928;14.480;2023-04-23T00:51:40;101000.44;;;18.24
63689;BMP280;54895;40.928;14.480;2023-04-23T00:54:06;100974.50;;;18.02
63689;BMP280;54895;40.928;14.480;2023-04-23T00:56:33;100953.28;;;17.72
63689;BMP280;54895;40.928;14.480;2023-04-23T00:59:00;100957.41;;;17.56
63689;BMP280;54895;40.928;14.480;2023-04-23T01:01:28;100928.91;;;17.36
63689;BMP280;54895;40.928;14.480;2023-04-23T01:03:55;100945.63;;;17.51
63689;BMP280;54895;40.928;14.480;2023-04-23T01:06:21;100927.50;;;17.35
63689;BMP280;54895;40.928;14.480;2023-04-23T01:08:50;100941.34;;;17.48
63689;BMP280;54895;40.928;14.480;2023-04-23T01:11:16;100947.97;;;17.47
63689;BMP280;54895;40.928;14.480;2023-04-23T01:13:42;100948.84;;;17.50
63689;BMP280;54895;40.928;14.480;2023-04-23T01:16:09;100925.31;;;17.41
63689;BMP280;54895;40.928;14.480;2023-04-23T01:18:36;100936.38;;;17.45
63689;BMP280;54895;40.928;14.480;2023-04-23T01:21:03;100944.44;;;17.62
63689;BMP280;54895;40.928;14.480;2023-04-23T01:23:30;100974.47;;;17.75
63689;BMP280;54895;40.928;14.480;2023-04-23T01:25:56;100979.41;;;17.79
63689;BMP280;54895;40.928;14.480;2023-04-23T01:28:23;100959.78;;;17.69
63689;BMP280;54895;40.928;14.480;2023-04-23T01:30:51;100964.88;;;17.65
63689;BMP280;54895;40.928;14.480;2023-04-23T01:33:17;100950.44;;;17.53
63689;BMP280;54895;40.928;14.480;2023-04-23T01:35:44;100987.97;;;17.85
63689;BMP280;54895;40.928;14.480;2023-04-23T01:38:13;101010.28;;;18.12
63689;BMP280;54895;40.928;14.480;2023-04-23T01:40:41;101032.91;;;18.09
63689;BMP280;54895;40.928;14.480;2023-04-23T01:43:07;100995.56;;;17.79
63689;BMP280;54895;40.928;14.480;2023-04-23T01:45:35;101032.16;;;17.99
63689;BMP280;54895;40.928;14.480;2023-04-23T01:48:02;101003.50;;;17.77
63689;BMP280;54895;40.928;14.480;2023-04-23T01:50:28;101031.53;;;18.08
63689;BMP280;54895;40.928;14.480;2023-04-23T01:52:55;101025.81;;;17.70
63689;BMP280;54895;40.928;14.480;2023-04-23T01:55:21;101002.81;;;17.35
63689;BMP280;54895;40.928;14.480;2023-04-23T01:57:50;100977.78;;;17.25
63689;BMP280;54895;40.928;14.480;2023-04-23T02:00:17;100983.81;;;17.33
63689;BMP280;54895;40.928;14.480;2023-04-23T02:02:43;100988.28;;;17.38
63689;BMP280;54895;40.928;14.480;2023-04-23T02:05:16;100945.63;;;17.10
63689;BMP280;54895;40.928;14.480;2023-04-23T02:07:48;100928.78;;;16.68
63689;BMP280;54895;40.928;14.480;2023-04-23T02:10:15;100945.13;;;16.87
63689;BMP280;54895;40.928;14.480;2023-04-23T02:12:42;100948.31;;;17.10
63689;BMP280;54895;40.928;14.480;2023-04-23T02:15:10;100946.44;;;17.03
63689;BMP280;54895;40.928;14.480;2023-04-23T02:17:37;100916.16;;;16.78
63689;BMP280;54895;40.928;14.480;2023-04-23T02:20:06;100927.25;;;16.82
63689;BMP280;54895;40.928;14.480;2023-04-23T02:22:36;100900.56;;;16.52
63689;BMP280;54895;40.928;14.480;2023-04-23T02:25:04;100933.56;;;16.77
63689;BMP280;54895;40.928;14.480;2023-04-23T02:27:30;100911.84;;;16.58
63689;BMP280;54895;40.928;14.480;2023-04-23T02:29:58;100917.03;;;16.56
63689;BMP280;54895;40.928;14.480;2023-04-23T02:32:25;100911.00;;;16.48
63689;BMP280;54895;40.928;14.480;2023-04-23T02:34:53;100923.75;;;16.64
63689;BMP280;54895;40.928;14.480;2023-04-23T02:37:20;100988.53;;;17.25
63689;BMP280;54895;40.928;14.480;2023-04-23T02:39:46;100987.28;;;17.26
63689;BMP280;54895;40.928;14.480;2023-04-23T02:42:12;100991.69;;;16.89
63689;BMP280;54895;40.928;14.480;2023-04-23T02:44:39;100976.44;;;16.92
63689;BMP280;54895;40.928;14.480;2023-04-23T02:47:05;100979.84;;;16.92
63689;BMP280;54895;40.928;14.480;2023-04-23T02:49:31;100959.91;;;16.71
63689;BMP280;54895;40.928;14.480;2023-04-23T02:51:58;100982.41;;;16.83
63689;BMP280;54895;40.928;14.480;2023-04-23T02:54:24;100963.28;;;16.79
63689;BMP280;54895;40.928;14.480;2023-04-23T02:56:50;100968.06;;;16.88
63689;BMP280;54895;40.928;14.480;2023-04-23T02:59:17;100986.59;;;17.01
63689;BMP280;54895;40.928;14.480;2023-04-23T03:01:43;100987.13;;;16.99
63689;BMP280;54895;40.928;14.480;2023-04-23T03:04:10;100942.00;;;16.73
63689;BMP280;54895;40.928;14.480;2023-04-23T03:06:37;100952.91;;;16.75
63689;BMP280;54895;40.928;14.480;2023-04-23T03:09:03;100946.22;;;16.84
63689;BMP280;54895;40.928;14.480;2023-04-23T03:11:30;100922.63;;;16.75
63689;BMP280;54895;40.928;14.480;2023-04-23T03:13:57;100944.69;;;16.98
63689;BMP280;54895;40.928;14.480;2023-04-23T03:16:27;100937.22;;;16.89
63689;BMP280;54895;40.928;14.480;2023-04-23T03:18:54;100936.03;;;17.07
63689;BMP280;54895;40.928;14.480;2023-04-23T03:21:20;100935.00;;;16.95
63689;BMP280;54895;40.928;14.480;2023-04-23T03:23:46;100928.59;;;16.90
63689;BMP280;54895;40.928;14.480;2023-04-23T03:26:13;100932.94;;;16.86
63689;BMP280;54895;40.928;14.480;2023-04-23T03:28:40;100892.53;;;16.52
63689;BMP280;54895;40.928;14.480;2023-04-23T03:31:06;100946.44;;;17.03
63689;BMP280;54895;40.928;14.480;2023-04-23T03:33:33;100932.84;;;17.01
63689;BMP280;54895;40.928;14.480;2023-04-23T03:35:59;100939.66;;;16.94
63689;BMP280;54895;40.928;14.480;2023-04-23T03:38:29;100957.53;;;17.07
63689;BMP280;54895;40.928;14.480;2023-04-23T03:40:57;100955.31;;;17.13
63689;BMP280;54895;40.928;14.480;2023-04-23T03:43:24;100962.91;;;17.07
63689;BMP280;54895;40.928;14.480;2023-04-23T03:46:02;100978.59;;;17.18
63689;BMP280;54895;40.928;14.480;2023-04-23T03:48:32;100991.31;;;17.34
63689;BMP280;54895;40.928;14.480;2023-04-23T03:51:02;101039.09;;;17.51
63689;BMP280;54895;40.928;14.480;2023-04-23T03:53:48;101038.38;;;17.50
63689;BMP280;54895;40.928;14.480;2023-04-23T03:56:24;101016.31;;;17.03
63689;BMP280;54895;40.928;14.480;2023-04-23T03:59:05;101000.63;;;16.92
63689;BMP280;54895;40.928;14.480;2023-04-23T04:01:32;100989.91;;;16.84
63689;BMP280;54895;40.928;14.480;2023-04-23T04:04:01;100990.81;;;16.87
63689;BMP280;54895;40.928;14.480;2023-04-23T04:06:29;100984.63;;;16.69
63689;BMP280;54895;40.928;14.480;2023-04-23T04:08:56;100994.09;;;16.78
63689;BMP280;54895;40.928;14.480;2023-04-23T04:11:22;100988.63;;;16.61
63689;BMP280;54895;40.928;14.480;2023-04-23T04:13:49;100983.84;;;16.52
63689;BMP280;54895;40.928;14.480;2023-04-23T04:16:15;100968.31;;;16.43
63689;BMP280;54895;40.928;14.480;2023-04-23T04:18:41;100973.31;;;16.47
63689;BMP280;54895;40.928;14.480;2023-04-23T04:21:07;100940.44;;;16.31
63689;BMP280;54895;40.928;14.480;2023-04-23T04:23:34;100961.94;;;16.31
63689;BMP280;54895;40.928;14.480;2023-04-23T04:26:00;100991.53;;;16.55
63689;BMP280;54895;40.928;14.480;2023-04-23T04:28:27;100969.19;;;16.46
63689;BMP280;54895;40.928;14.480;2023-04-23T04:30:54;100979.34;;;16.54
63689;BMP280;54895;40.928;14.480;2023-04-23T04:33:23;100956.56;;;16.39
63689;BMP280;54895;40.928;14.480;2023-04-23T04:35:50;100983.69;;;16.50
63689;BMP280;54895;40.928;14.480;2023-04-23T04:38:16;100968.81;;;16.49
63689;BMP280;54895;40.928;14.480;2023-04-23T04:40:43;101008.25;;;16.78
63689;BMP280;54895;40.928;14.480;2023-04-23T04:43:09;100990.22;;;16.64
63689;BMP280;54895;40.928;14.480;2023-04-23T04:45:35;100985.00;;;16.73
63689;BMP280;54895;40.928;14.480;2023-04-23T04:48:02;101016.69;;;16.99
63689;BMP280;54895;40.928;14.480;2023-04-23T04:50:28;101017.69;;;16.87
63689;BMP280;54895;40.928;14.480;2023-04-23T04:52:54;101030.25;;;17.09
63689;BMP280;54895;40.928;14.480;2023-04-23T04:55:20;101059.94;;;17.43
63689;BMP280;54895;40.928;14.480;2023-04-23T04:57:47;101023.13;;;17.04
63689;BMP280;54895;40.928;14.480;2023-04-23T05:00:23;101043.88;;;17.11
63689;BMP280;54895;40.928;14.480;2023-04-23T05:02:53;101054.44;;;17.09
63689;BMP280;54895;40.928;14.480;2023-04-23T05:05:21;101077.03;;;17.38
63689;BMP280;54895;40.928;14.480;2023-04-23T05:07:47;101051.44;;;17.05
63689;BMP280;54895;40.928;14.480;2023-04-23T05:10:14;101079.81;;;17.47
63689;BMP280;54895;40.928;14.480;2023-04-23T05:12:41;101057.03;;;17.24
63689;BMP280;54895;40.928;14.480;2023-04-23T05:15:09;101085.69;;;17.53
63689;BMP280;54895;40.928;14.480;2023-04-23T05:17:41;101082.72;;;17.66
63689;BMP280;54895;40.928;14.480;2023-04-23T05:20:08;101112.31;;;18.08
63689;BMP280;54895;40.928;14.480;2023-04-23T05:22:44;101111.75;;;18.26
63689;BMP280;54895;40.928;14.480;2023-04-23T05:25:11;101117.81;;;18.61
63689;BMP280;54895;40.928;14.480;2023-04-23T05:27:37;101099.13;;;18.29
63689;BMP280;54895;40.928;14.480;2023-04-23T05:30:06;101100.53;;;18.47
63689;BMP280;54895;40.928;14.480;2023-04-23T05:32:33;101110.63;;;18.73
63689;BMP280;54895;40.928;14.480;2023-04-23T05:35:01;101096.09;;;18.59
63689;BMP280;54895;40.928;14.480;2023-04-23T05:37:33;101120.06;;;18.81
63689;BMP280;54895;40.928;14.480;2023-04-23T05:39:59;101092.47;;;18.73
63689;BMP280;54895;40.928;14.480;2023-04-23T05:42:25;101105.19;;;18.89
63689;BMP280;54895;40.928;14.480;2023-04-23T05:44:52;101131.22;;;19.04
63689;BMP280;54895;40.928;14.480;2023-04-23T05:47:18;101106.63;;;18.90
63689;BMP280;54895;40.928;14.480;2023-04-23T05:49:44;101139.19;;;19.02
63689;BMP280;54895;40.928;14.480;2023-04-23T05:52:10;101142.13;;;18.96
63689;BMP280;54895;40.928;14.480;2023-04-23T05:54:37;101113.03;;;18.69
63689;BMP280;54895;40.928;14.480;2023-04-23T05:57:03;101118.94;;;18.84
63689;BMP280;54895;40.928;14.480;2023-04-23T05:59:30;101078.56;;;18.67
63689;BMP280;54895;40.928;14.480;2023-04-23T06:01:57;101076.97;;;18.64
63689;BMP280;54895;40.928;14.480;2023-04-23T06:04:23;101103.88;;;18.81
63689;BMP280;54895;40.928;14.480;2023-04-23T06:06:49;101094.72;;;18.93
63689;BMP280;54895;40.928;14.480;2023-04-23T06:09:15;101104.91;;;18.85
63689;BMP280;54895;40.928;14.480;2023-04-23T06:11:42;101115.16;;;19.23
63689;BMP280;54895;40.928;14.480;2023-04-23T06:14:09;101125.38;;;19.34
63689;BMP280;54895;40.928;14.480;2023-04-23T06:16:35;101138.63;;;19.39
63689;BMP280;54895;40.928;14.480;2023-04-23T06:19:02;101139.50;;;19.51
63689;BMP280;54895;40.928;14.480;2023-04-23T06:21:37;101144.94;;;19.70
63689;BMP280;54895;40.928;14.480;2023-04-23T06:24:04;101148.25;;;19.78
63689;BMP280;54895;40.928;14.480;2023-04-23T06:26:32;101106.84;;;19.47
63689;BMP280;54895;40.928;14.480;2023-04-23T06:29:03;101157.50;;;19.94
63689;BMP280;54895;40.928;14.480;2023-04-23T06:31:41;101175.16;;;20.33
63689;BMP280;54895;40.928;14.480;2023-04-23T06:34:07;101207.84;;;20.56
63689;BMP280;54895;40.928;14.480;2023-04-23T06:36:34;101222.78;;;20.76
63689;BMP280;54895;40.928;14.480;2023-04-23T06:39:00;101218.81;;;20.86
63689;BMP280;54895;40.928;14.480;2023-04-23T06:41:26;101225.69;;;21.18
63689;BMP280;54895;40.928;14.480;2023-04-23T06:44:07;101236.72;;;21.41
63689;BMP280;54895;40.928;14.480;2023-04-23T06:46:40;101264.13;;;21.66
63689;BMP280;54895;40.928;14.480;2023-04-23T06:49:06;101273.97;;;21.82
63689;BMP280;54895;40.928;14.480;2023-04-23T06:51:33;101266.09;;;21.96
63689;BMP280;54895;40.928;14.480;2023-04-23T06:53:59;101256.16;;;21.89
63689;BMP280;54895;40.928;14.480;2023-04-23T06:56:26;101287.50;;;22.33
63689;BMP280;54895;40.928;14.480;2023-04-23T06:58:52;101290.44;;;22.58
63689;BMP280;54895;40.928;14.480;2023-04-23T07:01:20;101287.84;;;22.49
63689;BMP280;54895;40.928;14.480;2023-04-23T07:03:47;101263.19;;;22.56
63689;BMP280;54895;40.928;14.480;2023-04-23T07:06:16;101267.03;;;22.42
63689;BMP280;54895;40.928;14.480;2023-04-23T07:08:42;101262.56;;;22.46
63689;BMP280;54895;40.928;14.480;2023-04-23T07:11:10;101281.38;;;22.33
63689;BMP280;54895;40.928;14.480;2023-04-23T07:13:38;101288.41;;;22.91
63689;BMP280;54895;40.928;14.480;2023-04-23T07:16:04;101275.66;;;22.82
63689;BMP280;54895;40.928;14.480;2023-04-23T07:18:30;101295.53;;;23.08
63689;BMP280;54895;40.928;14.480;2023-04-23T07:20:57;101276.63;;;22.98
63689;BMP280;54895;40.928;14.480;2023-04-23T07:23:23;101282.09;;;23.10
63689;BMP280;54895;40.928;14.480;2023-04-23T07:25:51;101309.16;;;23.54
63689;BMP280;54895;40.928;14.480;2023-04-23T07:28:17;101314.44;;;23.86
63689;BMP280;54895;40.928;14.480;2023-04-23T07:30:45;101303.91;;;23.92
63689;BMP280;54895;40.928;14.480;2023-04-23T07:33:11;101317.66;;;24.19
63689;BMP280;54895;40.928;14.480;2023-04-23T07:35:38;101310.16;;;23.94
63689;BMP280;54895;40.928;14.480;2023-04-23T07:38:04;101297.06;;;24.27
63689;BMP280;54895;40.928;14.480;2023-04-23T07:40:30;101302.66;;;24.43
63689;BMP280;54895;40.928;14.480;2023-04-23T07:42:57;101289.28;;;24.47
63689;BMP280;54895;40.928;14.480;2023-04-23T07:45:24;101308.47;;;24.87
63689;BMP280;54895;40.928;14.480;2023-04-23T07:47:50;101308.00;;;25.04
63689;BMP280;54895;40.928;14.480;2023-04-23T07:50:18;101293.59;;;25.02
63689;BMP280;54895;40.928;14.480;2023-04-23T07:52:45;101300.25;;;24.99
63689;BMP280;54895;40.928;14.480;2023-04-23T07:55:11;101289.31;;;24.85
63689;BMP280;54895;40.928;14.480;2023-04-23T07:57:38;101289.34;;;24.99
63689;BMP280;54895;40.928;14.480;2023-04-23T08:00:04;101291.63;;;24.27
63689;BMP280;54895;40.928;14.480;2023-04-23T08:02:38;101305.41;;;24.68
63689;BMP280;54895;40.928;14.480;2023-04-23T08:05:05;101307.53;;;25.08
63689;BMP280;54895;40.928;14.480;2023-04-23T08:07:33;101305.41;;;24.68
63689;BMP280;54895;40.928;14.480;2023-04-23T08:09:59;101292.16;;;24.12
63689;BMP280;54895;40.928;14.480;2023-04-23T08:12:29;101307.88;;;24.14
63689;BMP280;54895;40.928;14.480;2023-04-23T08:14:56;101306.22;;;23.61
63689;BMP280;54895;40.928;14.480;2023-04-23T08:17:29;101319.66;;;23.59
63689;BMP280;54895;40.928;14.480;2023-04-23T08:19:55;101248.97;;;23.82
63689;BMP280;54895;40.928;14.480;2023-04-23T08:22:21;101300.56;;;24.41
63689;BMP280;54895;40.928;14.480;2023-04-23T08:24:48;101318.06;;;24.88
63689;BMP280;54895;40.928;14.480;2023-04-23T08:27:14;101306.88;;;24.57
63689;BMP280;54895;40.928;14.480;2023-04-23T08:29:41;101301.84;;;25.03
63689;BMP280;54895;40.928;14.480;2023-04-23T08:32:07;101304.13;;;25.47
63689;BMP280;54895;40.928;14.480;2023-04-23T08:34:33;101312.38;;;25.49
63689;BMP280;54895;40.928;14.480;2023-04-23T08:37:00;101319.47;;;25.54
63689;BMP280;54895;40.928;14.480;2023-04-23T08:39:26;101315.19;;;24.73
63689;BMP280;54895;40.928;14.480;2023-04-23T08:41:54;101299.66;;;24.75
63689;BMP280;54895;40.928;14.480;2023-04-23T08:44:22;101316.72;;;24.14
63689;BMP280;54895;40.928;14.480;2023-04-23T08:46:52;101316.22;;;23.70
63689;BMP280;54895;40.928;14.480;2023-04-23T08:49:19;101312.44;;;24.23
63689;BMP280;54895;40.928;14.480;2023-04-23T08:51:51;101321.41;;;24.25
63689;BMP280;54895;40.928;14.480;2023-04-23T08:54:24;101314.53;;;24.36
63689;BMP280;54895;40.928;14.480;2023-04-23T08:56:56;101308.19;;;24.95
63689;BMP280;54895;40.928;14.480;2023-04-23T08:59:29;101314.66;;;25.82
63689;BMP280;54895;40.928;14.480;2023-04-23T09:01:56;101307.03;;;25.38
63689;BMP280;54895;40.928;14.480;2023-04-23T09:04:26;101303.69;;;25.12
63689;BMP280;54895;40.928;14.480;2023-04-23T09:06:54;101306.13;;;25.33
63689;BMP280;54895;40.928;14.480;2023-04-23T09:09:22;101310.03;;;25.30
63689;BMP280;54895;40.928;14.480;2023-04-23T09:11:49;101319.16;;;25.62
63689;BMP280;54895;40.928;14.480;2023-04-23T09:14:16;101313.63;;;25.89
63689;BMP280;54895;40.928;14.480;2023-04-23T09:16:42;101307.56;;;26.32
63689;BMP280;54895;40.928;14.480;2023-04-23T09:19:10;101311.56;;;26.16
63689;BMP280;54895;40.928;14.480;2023-04-23T09:21:39;101309.81;;;25.94
63689;BMP280;54895;40.928;14.480;2023-04-23T09:24:08;101297.53;;;26.08
63689;BMP280;54895;40.928;14.480;2023-04-23T09:26:46;101294.00;;;26.06
63689;BMP280;54895;40.928;14.480;2023-04-23T09:29:15;101311.88;;;25.39
63689;BMP280;54895;40.928;14.480;2023-04-23T09:31:48;101316.25;;;24.93
63689;BMP280;54895;40.928;14.480;2023-04-23T09:34:16;101305.47;;;24.95
63689;BMP280;54895;40.928;14.480;2023-04-23T09:36:44;101284.50;;;24.34
63689;BMP280;54895;40.928;14.480;2023-04-23T09:39:12;101279.56;;;24.30
63689;BMP280;54895;40.928;14.480;2023-04-23T09:41:39;101310.47;;;25.52
63689;BMP280;54895;40.928;14.480;2023-04-23T09:44:06;101286.63;;;26.08
63689;BMP280;54895;40.928;14.480;2023-04-23T09:46:40;101294.69;;;26.95
63689;BMP280;54895;40.928;14.480;2023-04-23T09:49:08;101310.19;;;26.75
63689;BMP280;54895;40.928;14.480;2023-04-23T09:51:39;101303.19;;;26.12
63689;BMP280;54895;40.928;14.480;2023-04-23T09:54:17;101297.94;;;26.16
63689;BMP280;54895;40.928;14.480;2023-04-23T09:56:48;101318.59;;;26.50
63689;BMP280;54895;40.928;14.480;2023-04-23T09:59:26;101291.41;;;25.38
63689;BMP280;54895;40.928;14.480;2023-04-23T10:01:54;101303.50;;;25.35
63689;BMP280;54895;40.928;14.480;2023-04-23T10:04:24;101299.88;;;25.71
63689;BMP280;54895;40.928;14.480;2023-04-23T10:06:55;101285.03;;;25.47
63689;BMP280;54895;40.928;14.480;2023-04-23T10:09:24;101304.31;;;25.38
63689;BMP280;54895;40.928;14.480;2023-04-23T10:11:51;101310.03;;;25.84
63689;BMP280;54895;40.928;14.480;2023-04-23T10:14:22;101302.53;;;25.85
63689;BMP280;54895;40.928;14.480;2023-04-23T10:16:57;101315.19;;;25.78
63689;BMP280;54895;40.928;14.480;2023-04-23T10:19:25;101305.72;;;25.52
63689;BMP280;54895;40.928;14.480;2023-04-23T10:22:03;101293.50;;;25.67
63689;BMP280;54895;40.928;14.480;2023-04-23T10:24:32;101303.91;;;25.43
63689;BMP280;54895;40.928;14.480;2023-04-23T10:27:00;101284.97;;;25.88
63689;BMP280;54895;40.928;14.480;2023-04-23T10:29:30;101312.50;;;25.51
63689;BMP280;54895;40.928;14.480;2023-04-23T10:31:59;101297.22;;;25.73
63689;BMP280;54895;40.928;14.480;2023-04-23T10:34:28;101294.69;;;25.77
63689;BMP280;54895;40.928;14.480;2023-04-23T10:36:56;101241.44;;;25.20
63689;BMP280;54895;40.928;14.480;2023-04-23T10:39:26;101305.81;;;26.10
63689;BMP280;54895;40.928;14.480;2023-04-23T10:41:54;101296.97;;;26.25
63689;BMP280;54895;40.928;14.480;2023-04-23T10:44:21;101283.13;;;25.50
63689;BMP280;54895;40.928;14.480;2023-04-23T10:46:54;101261.03;;;25.86
63689;BMP280;54895;40.928;14.480;2023-04-23T10:49:30;101295.25;;;26.03
63689;BMP280;54895;40.928;14.480;2023-04-23T10:52:30;101306.84;;;26.03
63689;BMP280;54895;40.928;14.480;2023-04-23T10:54:56;101311.34;;;25.83
63689;BMP280;54895;40.928;14.480;2023-04-23T10:57:24;101314.88;;;25.86
63689;BMP280;54895;40.928;14.480;2023-04-23T10:59:54;101290.28;;;25.99
63689;BMP280;54895;40.928;14.480;2023-04-23T11:02:24;101261.50;;;26.25
63689;BMP280;54895;40.928;14.480;2023-04-23T11:04:56;101253.25;;;25.52
63689;BMP280;54895;40.928;14.480;2023-04-23T11:07:30;101301.44;;;25.76
63689;BMP280;54895;40.928;14.480;2023-04-23T11:10:11;101313.22;;;26.23
63689;BMP280;54895;40.928;14.480;2023-04-23T11:12:38;101313.97;;;26.39
63689;BMP280;54895;40.928;14.480;2023-04-23T11:15:13;101308.41;;;25.93
63689;BMP280;54895;40.928;14.480;2023-04-23T11:20:13;101319.53;;;25.70
63689;BMP280;54895;40.928;14.480;2023-04-23T11:22:44;101320.84;;;25.55
63689;BMP280;54895;40.928;14.480;2023-04-23T11:25:13;101305.69;;;25.79
63689;BMP280;54895;40.928;14.480;2023-04-23T11:27:44;101293.56;;;25.82
63689;BMP280;54895;40.928;14.480;2023-04-23T11:30:12;101312.16;;;25.86
63689;BMP280;54895;40.928;14.480;2023-04-23T11:32:40;101290.09;;;25.95
63689;BMP280;54895;40.928;14.480;2023-04-23T11:35:07;101315.28;;;25.80
63689;BMP280;54895;40.928;14.480;2023-04-23T11:37:39;101323.91;;;25.61
63689;BMP280;54895;40.928;14.480;2023-04-23T11:40:13;101282.34;;;25.90
63689;BMP280;54895;40.928;14.480;2023-04-23T11:42:45;101307.63;;;25.77
63689;BMP280;54895;40.928;14.480;2023-04-23T11:45:24;101312.56;;;25.80
63689;BMP280;54895;40.928;14.480;2023-04-23T11:47:52;101295.41;;;25.78
63689;BMP280;54895;40.928;14.480;2023-04-23T11:50:26;101286.94;;;25.58
63689;BMP280;54895;40.928;14.480;2023-04-23T11:52:53;101306.84;;;26.03
63689;BMP280;54895;40.928;14.480;2023-04-23T11:55:21;101314.94;;;26.30
63689;BMP280;54895;40.928;14.480;2023-04-23T11:57:51;101314.56;;;26.51
63689;BMP280;54895;40.928;14.480;2023-04-23T12:00:23;101309.09;;;26.51
63689;BMP280;54895;40.928;14.480;2023-04-23T12:08:07;101312.19;;;26.30
63689;BMP280;54895;40.928;14.480;2023-04-23T12:11:01;101315.59;;;26.44
63689;BMP280;54895;40.928;14.480;2023-04-23T12:13:29;101308.09;;;26.29
63689;BMP280;54895;40.928;14.480;2023-04-23T12:15:59;101285.06;;;26.19
63689;BMP280;54895;40.928;14.480;2023-04-23T12:18:33;101312.16;;;25.86
63689;BMP280;54895;40.928;14.480;2023-04-23T12:21:06;101315.41;;;26.40
63689;BMP280;54895;40.928;14.480;2023-04-23T12:23:33;101311.84;;;26.82
63689;BMP280;54895;40.928;14.480;2023-04-23T12:26:01;101313.31;;;26.54
63689;BMP280;54895;40.928;14.480;2023-04-23T12:28:28;101315.19;;;26.21
63689;BMP280;54895;40.928;14.480;2023-04-23T12:31:01;101313.38;;;26.40
63689;BMP280;54895;40.928;14.480;2023-04-23T12:33:28;101316.91;;;26.43
63689;BMP280;54895;40.928;14.480;2023-04-23T12:35:54;101312.69;;;27.33
63689;BMP280;54895;40.928;14.480;2023-04-23T12:38:23;101302.41;;;26.54
63689;BMP280;54895;40.928;14.480;2023-04-23T12:40:54;101307.72;;;26.96
63689;BMP280;54895;40.928;14.480;2023-04-23T12:43:21;101309.19;;;26.84
63689;BMP280;54895;40.928;14.480;2023-04-23T12:45:48;101301.22;;;26.88
63689;BMP280;54895;40.928;14.480;2023-04-23T12:48:14;101296.91;;;26.38
63689;BMP280;54895;40.928;14.480;2023-04-23T12:50:41;101304.97;;;26.65
63689;BMP280;54895;40.928;14.480;2023-04-23T12:53:08;101303.50;;;26.78
63689;BMP280;54895;40.928;14.480;2023-04-23T12:55:34;101298.22;;;26.82
63689;BMP280;54895;40.928;14.480;2023-04-23T12:58:02;101304.88;;;26.48
63689;BMP280;54895;40.928;14.480;2023-04-23T13:00:29;101269.47;;;26.50
63689;BMP280;54895;40.928;14.480;2023-04-23T13:02:56;101298.06;;;26.49
63689;BMP280;54895;40.928;14.480;2023-04-23T13:05:22;101287.06;;;27.09
63689;BMP280;54895;40.928;14.480;2023-04-23T13:07:49;101299.00;;;27.33
63689;BMP280;54895;40.928;14.480;2023-04-23T13:10:16;101288.47;;;27.75
63689;BMP280;54895;40.928;14.480;2023-04-23T13:12:43;101290.94;;;27.35
63689;BMP280;54895;40.928;14.480;2023-04-23T13:15:10;101304.88;;;27.10
63689;BMP280;54895;40.928;14.480;2023-04-23T13:17:38;101294.19;;;27.81
63689;BMP280;54895;40.928;14.480;2023-04-23T13:20:05;101294.09;;;27.79
63689;BMP280;54895;40.928;14.480;2023-04-23T13:22:33;101288.75;;;27.16
63689;BMP280;54895;40.928;14.480;2023-04-23T13:25:03;101294.72;;;27.28
63689;BMP280;54895;40.928;14.480;2023-04-23T13:27:30;101278.78;;;27.72
63689;BMP280;54895;40.928;14.480;2023-04-23T13:29:57;101274.81;;;27.75
63689;BMP280;54895;40.928;14.480;2023-04-23T13:32:24;101282.88;;;27.71
63689;BMP280;54895;40.928;14.480;2023-04-23T13:34:52;101293.69;;;27.69
63689;BMP280;54895;40.928;14.480;2023-04-23T13:37:19;101291.66;;;28.05
63689;BMP280;54895;40.928;14.480;2023-04-23T13:39:47;101273.59;;;27.13
63689;BMP280;54895;40.928;14.480;2023-04-23T13:42:14;101285.25;;;27.46
63689;BMP280;54895;40.928;14.480;2023-04-23T13:44:40;101298.63;;;27.55
63689;BMP280;54895;40.928;14.480;2023-04-23T13:47:07;101271.03;;;27.17
63689;BMP280;54895;40.928;14.480;2023-04-23T13:49:34;101290.28;;;26.88
63689;BMP280;54895;40.928;14.480;2023-04-23T13:52:01;101298.34;;;26.55
63689;BMP280;54895;40.928;14.480;2023-04-23T13:54:31;101280.19;;;26.46
63689;BMP280;54895;40.928;14.480;2023-04-23T13:56:58;101277.66;;;26.50